createdAt,value
2018-11-11T00:01:41.837Z,8.37
2018-11-11T00:04:15.492Z,8.41
2018-11-11T00:06:48.760Z,8.40
2018-11-11T00:09:22.018Z,8.37
2018-11-11T00:11:58.027Z,8.34
2018-11-11T00:14:32.432Z,8.32
2018-11-11T00:17:05.641Z,8.35
2018-11-11T00:19:39.835Z,8.37
2018-11-11T00:22:14.206Z,8.32
2018-11-11T00:24:46.785Z,8.37
2018-11-11T00:27:21.872Z,8.43
2018-11-11T00:29:56.065Z,8.44
2018-11-11T00:32:31.160Z,8.46
2018-11-11T00:35:03.321Z,8.40
2018-11-11T00:37:38.549Z,8.40
2018-11-11T00:40:12.576Z,8.41
2018-11-11T00:42:47.868Z,8.40
2018-11-11T00:45:22.051Z,8.41
2018-11-11T00:47:56.018Z,8.49
2018-11-11T00:50:29.151Z,8.40
2018-11-11T00:53:04.208Z,8.36
2018-11-11T00:55:41.505Z,8.34
2018-11-11T00:58:16.368Z,8.33
2018-11-11T01:00:51.446Z,8.30
2018-11-11T01:03:26.577Z,8.31
2018-11-11T01:05:59.746Z,8.32
2018-11-11T01:08:34.002Z,8.29
2018-11-11T01:11:06.925Z,8.40
2018-11-11T01:13:41.659Z,8.39
2018-11-11T01:16:17.291Z,8.40
2018-11-11T01:18:51.998Z,8.40
2018-11-11T01:21:25.260Z,8.40
2018-11-11T01:24:00.505Z,8.39
2018-11-11T01:26:34.163Z,8.47
2018-11-11T01:29:08.724Z,8.45
2018-11-11T01:31:43.548Z,8.45
2018-11-11T01:34:17.645Z,8.42
2018-11-11T01:36:50.940Z,8.37
2018-11-11T01:39:24.684Z,8.29
2018-11-11T01:42:00.838Z,8.24
2018-11-11T01:44:34.142Z,8.20
2018-11-11T01:47:08.084Z,8.22
2018-11-11T01:49:42.500Z,8.22
2018-11-11T01:52:16.963Z,8.26
2018-11-11T01:54:50.664Z,8.25
2018-11-11T01:57:26.945Z,8.30
2018-11-11T01:59:59.626Z,8.30
2018-11-11T02:02:33.888Z,8.36
2018-11-11T02:05:07.233Z,8.25
2018-11-11T02:07:41.377Z,8.25
2018-11-11T02:10:16.749Z,8.24
2018-11-11T02:12:50.738Z,8.24
2018-11-11T02:15:24.659Z,8.20
2018-11-11T02:17:58.315Z,8.20
2018-11-11T02:20:30.672Z,8.15
2018-11-11T02:23:02.602Z,8.08
2018-11-11T02:25:36.847Z,8.05
2018-11-11T02:28:11.968Z,7.99
2018-11-11T02:30:45.544Z,7.94
2018-11-11T02:33:18.611Z,7.93
2018-11-11T02:35:54.093Z,7.90
2018-11-11T02:38:27.956Z,7.88
2018-11-11T02:41:01.801Z,7.88
2018-11-11T02:43:37.792Z,7.80
2018-11-11T02:46:11.882Z,7.82
2018-11-11T02:48:45.149Z,7.76
2018-11-11T02:51:16.046Z,7.65
2018-11-11T02:53:48.475Z,7.46
2018-11-11T02:56:22.698Z,7.32
2018-11-11T02:58:57.413Z,7.13
2018-11-11T03:01:29.873Z,6.97
2018-11-11T03:04:03.169Z,7.20
2018-11-11T03:06:36.744Z,7.24
2018-11-11T03:09:13.657Z,7.25
2018-11-11T03:11:45.455Z,7.19
2018-11-11T03:14:18.710Z,7.07
2018-11-11T03:16:51.306Z,6.99
2018-11-11T03:19:23.676Z,6.88
2018-11-11T03:21:58.067Z,6.83
2018-11-11T03:24:33.566Z,6.71
2018-11-11T03:27:08.261Z,6.60
2018-11-11T03:29:41.090Z,6.49
2018-11-11T03:32:14.247Z,6.36
2018-11-11T03:34:48.659Z,6.25
2018-11-11T03:37:21.855Z,6.21
2018-11-11T03:40:00.371Z,6.16
2018-11-11T03:42:36.056Z,6.12
2018-11-11T03:45:11.382Z,6.01
2018-11-11T03:47:46.918Z,5.91
2018-11-11T03:50:20.091Z,5.89
2018-11-11T03:52:52.398Z,5.90
2018-11-11T03:55:27.935Z,5.82
2018-11-11T03:58:01.704Z,5.83
2018-11-11T04:00:35.542Z,5.82
2018-11-11T04:03:09.326Z,5.74
2018-11-11T04:05:43.465Z,5.67
2018-11-11T04:08:17.004Z,5.60
2018-11-11T04:10:50.066Z,5.58
2018-11-11T04:13:24.290Z,5.67
2018-11-11T04:15:57.378Z,5.75
2018-11-11T04:18:30.800Z,5.88
2018-11-11T04:21:02.255Z,6.08
2018-11-11T04:23:37.995Z,6.05
2018-11-11T04:26:12.954Z,6.03
2018-11-11T04:28:45.369Z,6.00
2018-11-11T04:31:18.729Z,6.01
2018-11-11T04:33:53.150Z,6.05
2018-11-11T04:36:26.250Z,6.05
2018-11-11T04:39:00.620Z,5.98
2018-11-11T04:41:34.897Z,6.07
2018-11-11T04:44:10.506Z,6.12
2018-11-11T04:46:45.909Z,6.15
2018-11-11T04:49:21.092Z,6.29
2018-11-11T04:51:55.166Z,6.31
2018-11-11T04:54:28.939Z,6.40
2018-11-11T04:57:01.356Z,6.43
2018-11-11T04:59:35.353Z,6.42
2018-11-11T05:02:10.398Z,6.43
2018-11-11T05:04:43.203Z,6.49
2018-11-11T05:07:18.568Z,6.56
2018-11-11T05:09:51.533Z,6.61
2018-11-11T05:12:26.729Z,6.59
2018-11-11T05:14:59.668Z,6.66
2018-11-11T05:17:34.074Z,6.74
2018-11-11T05:20:07.342Z,6.76
2018-11-11T05:22:42.657Z,6.84
2018-11-11T05:25:17.128Z,6.86
2018-11-11T05:27:52.063Z,6.88
2018-11-11T05:30:26.176Z,6.90
2018-11-11T05:32:59.468Z,6.93
2018-11-11T05:35:33.335Z,6.95
2018-11-11T05:38:06.006Z,6.95
2018-11-11T05:40:41.288Z,6.95
2018-11-11T05:43:11.546Z,7.02
2018-11-11T05:45:46.269Z,7.05
2018-11-11T05:48:19.159Z,7.09
2018-11-11T05:50:52.325Z,7.17
2018-11-11T05:53:28.884Z,7.21
2018-11-11T05:56:02.356Z,7.26
2018-11-11T05:58:34.745Z,7.37
2018-11-11T06:01:08.175Z,7.40
2018-11-11T06:03:41.790Z,7.50
2018-11-11T06:06:15.479Z,7.50
2018-11-11T06:08:47.194Z,7.55
2018-11-11T06:11:24.300Z,7.57
2018-11-11T06:13:57.746Z,7.68
2018-11-11T06:16:33.038Z,7.72
2018-11-11T06:19:06.922Z,7.83
2018-11-11T06:21:39.747Z,7.91
2018-11-11T06:24:14.832Z,7.97
2018-11-11T06:26:49.750Z,8.01
2018-11-11T06:29:24.250Z,8.09
2018-11-11T06:31:57.447Z,8.16
2018-11-11T06:34:31.081Z,8.22
2018-11-11T06:37:05.077Z,8.28
2018-11-11T06:39:39.601Z,8.37
2018-11-11T06:42:12.596Z,8.41
2018-11-11T06:44:47.063Z,8.44
2018-11-11T06:47:20.269Z,8.48
2018-11-11T06:49:54.854Z,8.51
2018-11-11T06:52:29.292Z,8.56
2018-11-11T06:55:00.622Z,8.58
2018-11-11T06:57:32.824Z,8.64
2018-11-11T07:00:06.222Z,8.69
2018-11-11T07:02:41.544Z,8.75
2018-11-11T07:05:15.083Z,8.79
2018-11-11T07:07:48.265Z,8.86
2018-11-11T07:10:21.225Z,8.91
2018-11-11T07:12:56.996Z,8.98
2018-11-11T07:15:30.848Z,9.02
2018-11-11T07:18:02.919Z,9.05
2018-11-11T07:20:38.235Z,9.06
2018-11-11T07:23:11.471Z,9.07
2018-11-11T07:25:46.624Z,9.02
2018-11-11T07:28:22.010Z,9.03
2018-11-11T07:30:54.785Z,9.04
2018-11-11T07:33:29.169Z,9.05
2018-11-11T07:36:03.352Z,9.07
2018-11-11T07:38:37.606Z,9.07
2018-11-11T07:41:13.138Z,9.08
2018-11-11T07:43:45.355Z,9.09
2018-11-11T07:46:20.635Z,9.09
2018-11-11T07:48:53.699Z,9.16
2018-11-11T07:51:28.058Z,9.21
2018-11-11T07:54:02.698Z,9.25
2018-11-11T07:56:35.859Z,9.31
2018-11-11T07:59:10.373Z,9.36
2018-11-11T08:01:44.576Z,9.48
2018-11-11T08:04:19.014Z,9.50
2018-11-11T08:06:52.758Z,9.61
2018-11-11T08:09:28.187Z,9.61
2018-11-11T08:12:02.749Z,9.63
2018-11-11T08:14:35.945Z,9.63
2018-11-11T08:17:11.562Z,9.61
2018-11-11T08:19:44.262Z,9.63
2018-11-11T08:22:19.812Z,9.64
2018-11-11T08:24:53.824Z,9.60
2018-11-11T08:27:27.314Z,9.63
2018-11-11T08:30:01.067Z,9.72
2018-11-11T08:32:35.455Z,9.69
2018-11-11T08:35:09.766Z,9.81
2018-11-11T08:37:44.345Z,9.84
2018-11-11T08:40:18.368Z,9.79
2018-11-11T08:42:52.532Z,9.84
2018-11-11T08:45:26.900Z,9.92
2018-11-11T08:48:00.735Z,10.01
2018-11-11T08:50:34.566Z,10.26
2018-11-11T08:53:09.204Z,10.54
2018-11-11T08:55:46.291Z,10.75
2018-11-11T08:58:20.310Z,10.66
2018-11-11T09:00:55.424Z,10.24
2018-11-11T09:03:28.864Z,10.32
2018-11-11T09:06:00.316Z,10.44
2018-11-11T09:08:33.343Z,10.34
2018-11-11T09:11:07.280Z,10.23
2018-11-11T09:13:41.865Z,10.32
2018-11-11T09:16:15.459Z,10.30
2018-11-11T09:18:48.836Z,10.30
2018-11-11T09:21:24.029Z,10.20
2018-11-11T09:23:58.299Z,10.22
2018-11-11T09:26:33.105Z,10.19
2018-11-11T09:29:07.046Z,10.12
2018-11-11T09:31:42.161Z,10.26
2018-11-11T09:34:16.129Z,10.46
2018-11-11T09:36:49.105Z,10.77
2018-11-11T09:39:23.222Z,10.90
2018-11-11T09:41:56.132Z,11.52
2018-11-11T09:44:29.701Z,12.42
2018-11-11T09:47:01.856Z,12.60
2018-11-11T09:49:35.798Z,12.20
2018-11-11T09:52:08.633Z,12.52
2018-11-11T09:54:44.681Z,13.10
2018-11-11T09:57:18.143Z,12.97
2018-11-11T09:59:51.547Z,13.84
2018-11-11T10:02:22.791Z,13.93
2018-11-11T10:04:58.154Z,13.80
2018-11-11T10:07:36.447Z,13.79
2018-11-11T10:10:18.531Z,13.71
2018-11-11T10:13:02.615Z,13.81
2018-11-11T10:15:58.437Z,13.57
2018-11-11T10:18:40.335Z,14.13
2018-11-11T10:21:55.580Z,14.28
2018-11-11T10:24:33.781Z,14.14
2018-11-11T10:27:11.017Z,14.03
2018-11-11T10:29:49.798Z,14.65
2018-11-11T10:32:37.437Z,14.09
2018-11-11T10:36:16.120Z,13.09
2018-11-11T10:40:58.785Z,12.32
2018-11-11T10:43:41.171Z,11.77
2018-11-11T10:46:26.318Z,11.52
2018-11-11T10:49:03.956Z,11.31
2018-11-11T10:51:38.550Z,11.42
2018-11-11T10:54:12.830Z,11.42
2018-11-11T10:56:48.275Z,11.40
2018-11-11T10:59:21.897Z,11.47
2018-11-11T11:02:00.143Z,11.51
2018-11-11T11:04:34.054Z,11.59
2018-11-11T11:07:08.784Z,11.57
2018-11-11T11:09:49.057Z,11.51
2018-11-11T11:12:25.195Z,11.50
2018-11-11T11:15:00.177Z,11.33
2018-11-11T11:17:36.393Z,11.24
2018-11-11T11:20:09.972Z,11.11
2018-11-11T11:22:44.723Z,11.15
2018-11-11T11:25:20.161Z,11.23
2018-11-11T11:27:55.266Z,11.40
2018-11-11T11:30:28.256Z,11.40
2018-11-11T11:33:01.996Z,11.55
2018-11-11T11:35:35.706Z,11.52
2018-11-11T11:38:09.242Z,11.48
2018-11-11T11:40:46.017Z,11.68
2018-11-11T11:43:19.288Z,11.84
2018-11-11T11:45:53.548Z,11.95
2018-11-11T11:48:26.926Z,12.00
2018-11-11T11:51:01.033Z,12.06
2018-11-11T11:53:36.067Z,12.38
2018-11-11T11:56:10.789Z,12.62
2018-11-11T11:58:45.858Z,12.85
2018-11-11T12:01:19.081Z,12.93
2018-11-11T12:03:54.497Z,12.69
2018-11-11T12:06:31.163Z,12.68
2018-11-11T12:09:07.214Z,12.57
2018-11-11T12:11:41.601Z,12.77
2018-11-11T12:14:15.000Z,12.97
2018-11-11T12:16:49.223Z,12.97
2018-11-11T12:19:23.485Z,13.37
2018-11-11T12:21:56.410Z,13.77
2018-11-11T12:24:29.052Z,13.89
2018-11-11T12:27:01.559Z,14.25
2018-11-11T12:29:35.406Z,14.26
2018-11-11T12:32:11.180Z,15.06
2018-11-11T12:34:46.653Z,15.05
2018-11-11T12:37:21.388Z,15.29
2018-11-11T12:39:56.762Z,16.03
2018-11-11T12:42:30.373Z,16.01
2018-11-11T12:45:03.165Z,16.51
2018-11-11T12:47:36.943Z,16.03
2018-11-11T12:50:11.917Z,16.45
2018-11-11T12:52:45.345Z,15.85
2018-11-11T12:55:20.549Z,15.71
2018-11-11T12:57:54.796Z,15.42
2018-11-11T13:00:28.447Z,15.71
2018-11-11T13:02:59.785Z,15.39
2018-11-11T13:05:34.059Z,15.29
2018-11-11T13:08:09.065Z,14.94
2018-11-11T13:10:44.764Z,15.01
2018-11-11T13:13:19.095Z,14.75
2018-11-11T13:15:52.220Z,15.01
2018-11-11T13:18:27.134Z,15.23
2018-11-11T13:20:59.704Z,15.36
2018-11-11T13:23:36.504Z,15.28
2018-11-11T13:26:12.891Z,15.80
2018-11-11T13:28:47.039Z,15.61
2018-11-11T13:32:23.302Z,16.04
2018-11-11T13:34:58.166Z,16.48
2018-11-11T13:37:32.255Z,16.42
2018-11-11T13:40:06.664Z,15.83
2018-11-11T13:42:41.515Z,15.39
2018-11-11T13:45:17.792Z,15.58
2018-11-11T13:47:52.670Z,14.94
2018-11-11T13:50:27.883Z,14.63
2018-11-11T13:53:05.247Z,14.77
2018-11-11T13:55:41.331Z,14.79
2018-11-11T13:58:14.082Z,14.69
2018-11-11T14:00:46.303Z,14.48
2018-11-11T14:03:20.322Z,14.60
2018-11-11T14:05:54.624Z,14.78
2018-11-11T14:08:28.303Z,15.03
2018-11-11T14:11:00.901Z,15.47
2018-11-11T14:13:35.051Z,15.61
2018-11-11T14:16:04.619Z,15.86
2018-11-11T14:18:38.613Z,15.75
2018-11-11T14:21:10.166Z,15.84
2018-11-11T14:23:43.611Z,15.54
2018-11-11T14:26:17.468Z,15.04
2018-11-11T14:28:50.981Z,14.90
2018-11-11T14:31:24.736Z,14.84
2018-11-11T14:33:58.233Z,14.73
2018-11-11T14:36:32.434Z,14.80
2018-11-11T14:39:05.539Z,14.51
2018-11-11T14:41:40.128Z,14.30
2018-11-11T14:44:15.143Z,14.30
2018-11-11T14:46:48.062Z,14.20
2018-11-11T14:49:17.323Z,14.10
2018-11-11T14:51:46.381Z,13.97
2018-11-11T14:54:15.257Z,13.90
2018-11-11T14:56:44.211Z,13.94
2018-11-11T14:59:13.196Z,13.66
2018-11-11T15:01:42.192Z,13.43
2018-11-11T15:04:11.206Z,13.17
2018-11-11T15:06:40.156Z,13.09
2018-11-11T15:09:10.574Z,12.97
2018-11-11T15:11:40.081Z,12.86
2018-11-11T15:14:09.197Z,12.70
2018-11-11T15:16:38.192Z,12.52
2018-11-11T15:19:07.245Z,12.44
2018-11-11T15:21:36.095Z,12.26
2018-11-11T15:24:05.575Z,12.15
2018-11-11T15:26:34.537Z,12.04
2018-11-11T15:29:03.485Z,11.92
2018-11-11T15:31:32.477Z,11.86
2018-11-11T15:34:01.525Z,11.74
2018-11-11T15:36:31.108Z,11.73
2018-11-11T15:39:00.153Z,11.63
2018-11-11T15:41:29.076Z,11.54
2018-11-11T15:43:58.074Z,11.52
2018-11-11T15:46:27.129Z,11.41
2018-11-11T15:48:56.050Z,11.36
2018-11-11T15:51:24.995Z,11.28
2018-11-11T15:53:53.933Z,11.20
2018-11-11T15:56:22.957Z,11.16
2018-11-11T15:58:51.876Z,11.10
2018-11-11T16:01:20.845Z,11.12
2018-11-11T16:03:49.798Z,11.04
2018-11-11T16:06:18.807Z,11.00
2018-11-11T16:08:47.728Z,10.91
2018-11-11T16:11:17.714Z,10.84
2018-11-11T16:13:46.664Z,10.82
2018-11-11T16:16:15.661Z,10.79
2018-11-11T16:18:44.605Z,10.73
2018-11-11T16:21:13.605Z,10.66
2018-11-11T16:23:42.658Z,10.61
2018-11-11T16:26:11.593Z,10.59
2018-11-11T16:28:42.783Z,10.60
2018-11-11T16:31:13.583Z,10.59
2018-11-11T16:33:45.498Z,10.53
2018-11-11T16:36:17.651Z,10.51
2018-11-11T16:38:48.499Z,10.50
2018-11-11T16:41:17.932Z,10.51
2018-11-11T16:43:49.608Z,10.52
2018-11-11T16:46:21.136Z,10.47
2018-11-11T16:48:50.929Z,10.41
2018-11-11T16:51:22.382Z,10.33
2018-11-11T16:53:53.771Z,10.32
2018-11-11T16:56:25.680Z,10.29
2018-11-11T16:58:54.606Z,10.25
2018-11-11T17:01:23.553Z,10.23
2018-11-11T17:03:52.503Z,10.18
2018-11-11T17:06:21.450Z,10.16
2018-11-11T17:08:53.950Z,10.17
2018-11-11T17:11:25.408Z,10.15
2018-11-11T17:13:56.546Z,10.11
2018-11-11T17:16:27.828Z,10.10
2018-11-11T17:18:58.633Z,10.06
2018-11-11T17:21:28.123Z,10.02
2018-11-11T17:23:59.691Z,9.99
2018-11-11T17:26:32.161Z,9.96
2018-11-11T17:29:03.476Z,9.93
2018-11-11T17:31:34.202Z,9.88
2018-11-11T17:34:06.965Z,9.85
2018-11-11T17:36:36.484Z,9.84
2018-11-11T17:39:12.097Z,9.88
2018-11-11T17:41:44.317Z,9.88
2018-11-11T17:44:15.602Z,9.88
2018-11-11T17:46:48.507Z,9.89
2018-11-11T17:49:20.296Z,9.93
2018-11-11T17:51:49.269Z,9.89
2018-11-11T17:54:18.418Z,9.90
2018-11-11T17:56:51.869Z,9.90
2018-11-11T17:59:21.138Z,9.90
2018-11-11T18:01:50.129Z,9.92
2018-11-11T18:04:19.089Z,9.92
2018-11-11T18:06:48.034Z,9.93
2018-11-11T18:09:17.089Z,10.03
2018-11-11T18:11:46.072Z,10.02
2018-11-11T18:14:16.218Z,10.07
2018-11-11T18:16:45.170Z,10.09
2018-11-11T18:19:14.313Z,10.14
2018-11-11T18:21:44.433Z,10.14
2018-11-11T18:24:13.450Z,10.16
2018-11-11T18:26:42.542Z,10.13
2018-11-11T18:29:11.519Z,10.07
2018-11-11T18:31:40.538Z,10.09
2018-11-11T18:34:09.505Z,10.12
2018-11-11T18:36:38.483Z,10.08
2018-11-11T18:39:09.380Z,10.05
2018-11-11T18:41:38.556Z,10.12
2018-11-11T18:44:07.596Z,10.07
2018-11-11T18:46:36.823Z,10.13
2018-11-11T18:49:07.706Z,10.15
2018-11-11T18:51:37.029Z,10.13
2018-11-11T18:54:05.974Z,10.13
2018-11-11T18:56:35.160Z,10.11
2018-11-11T18:59:04.143Z,10.12
2018-11-11T19:01:33.289Z,10.09
2018-11-11T19:04:02.313Z,10.07
2018-11-11T19:06:31.625Z,10.08
2018-11-11T19:09:00.549Z,10.17
2018-11-11T19:11:29.567Z,10.17
2018-11-11T19:13:58.631Z,10.13
2018-11-11T19:16:27.786Z,10.14
2018-11-11T19:18:56.831Z,10.07
2018-11-11T19:21:25.721Z,10.06
2018-11-11T19:23:55.104Z,10.12
2018-11-11T19:26:24.087Z,10.16
2018-11-11T19:28:53.025Z,10.16
2018-11-11T19:31:21.983Z,10.16
2018-11-11T19:33:51.287Z,10.19
2018-11-11T19:36:20.238Z,10.20
2018-11-11T19:38:49.140Z,10.12
2018-11-11T19:41:21.141Z,10.13
2018-11-11T19:43:51.841Z,10.12
2018-11-11T19:46:23.207Z,10.15
2018-11-11T19:48:52.377Z,10.13
2018-11-11T19:51:21.356Z,10.16
2018-11-11T19:53:50.397Z,10.24
2018-11-11T19:56:19.446Z,10.26
2018-11-11T19:58:48.833Z,10.29
2018-11-11T20:01:21.015Z,10.41
2018-11-11T20:03:50.591Z,10.44
2018-11-11T20:06:19.597Z,10.45
2018-11-11T20:08:48.532Z,10.46
2018-11-11T20:11:17.522Z,10.42
2018-11-11T20:13:46.652Z,10.42
2018-11-11T20:16:15.605Z,10.41
2018-11-11T20:18:44.536Z,10.38
2018-11-11T20:21:13.747Z,10.40
2018-11-11T20:23:42.768Z,10.41
2018-11-11T20:26:11.750Z,10.40
2018-11-11T20:28:40.722Z,10.37
2018-11-11T20:31:09.692Z,10.42
2018-11-11T20:33:38.816Z,10.47
2018-11-11T20:36:07.762Z,10.49
2018-11-11T20:38:36.721Z,10.42
2018-11-11T20:41:05.926Z,10.44
2018-11-11T20:43:35.128Z,10.43
2018-11-11T20:46:04.317Z,10.55
2018-11-11T20:48:33.499Z,10.65
2018-11-11T20:51:02.452Z,10.57
2018-11-11T20:53:31.435Z,10.55
2018-11-11T20:56:00.498Z,10.46
2018-11-11T20:58:29.365Z,10.60
2018-11-11T21:01:00.572Z,10.56
2018-11-11T21:03:34.626Z,10.53
2018-11-11T21:06:09.036Z,10.51
2018-11-11T21:08:42.060Z,10.55
2018-11-11T21:11:15.867Z,10.60
2018-11-11T21:13:48.928Z,10.56
2018-11-11T21:16:24.601Z,10.58
2018-11-11T21:18:58.121Z,10.60
2018-11-11T21:21:31.776Z,10.64
2018-11-11T21:24:05.262Z,10.67
2018-11-11T21:26:39.736Z,10.66
2018-11-11T21:29:14.275Z,10.67
2018-11-11T21:31:49.114Z,10.64
2018-11-11T21:34:23.230Z,10.57
2018-11-11T21:36:57.058Z,10.60
2018-11-11T21:39:33.346Z,10.58
2018-11-11T21:42:08.331Z,10.57
2018-11-11T21:44:44.962Z,10.55
2018-11-11T21:47:20.090Z,10.47
2018-11-11T21:49:52.788Z,10.44
2018-11-11T21:52:29.170Z,10.38
2018-11-11T21:55:04.940Z,10.41
2018-11-11T21:57:40.401Z,10.53
2018-11-11T22:00:22.296Z,10.51
2018-11-11T22:02:57.594Z,10.54
2018-11-11T22:05:31.202Z,10.58
2018-11-11T22:08:05.239Z,10.52
2018-11-11T22:10:37.756Z,10.59
2018-11-11T22:13:11.075Z,10.65
2018-11-11T22:15:44.228Z,10.68
2018-11-11T22:18:17.115Z,10.71
2018-11-11T22:20:51.141Z,10.74
2018-11-11T22:23:28.795Z,10.75
2018-11-11T22:26:02.152Z,10.77
2018-11-11T22:28:37.675Z,10.79
2018-11-11T22:31:12.333Z,10.83
2018-11-11T22:33:47.573Z,10.79
2018-11-11T22:36:22.403Z,10.82
2018-11-11T22:38:57.267Z,10.85
2018-11-11T22:41:32.910Z,10.84
2018-11-11T22:44:07.628Z,10.80
2018-11-11T22:46:40.766Z,10.76
2018-11-11T22:49:16.562Z,10.67
2018-11-11T22:51:50.309Z,10.62
2018-11-11T22:54:19.753Z,10.65
2018-11-11T22:56:54.786Z,10.62
2018-11-11T22:59:30.335Z,10.66
2018-11-11T23:02:00.417Z,10.62
2018-11-11T23:04:35.654Z,10.61
2018-11-11T23:07:09.641Z,10.56
2018-11-11T23:09:43.543Z,10.57
2018-11-11T23:12:18.361Z,10.54
2018-11-11T23:14:51.948Z,10.46
2018-11-11T23:17:25.833Z,10.38
2018-11-11T23:19:59.743Z,10.20
2018-11-11T23:22:33.613Z,10.09
2018-11-11T23:25:05.907Z,9.98
2018-11-11T23:27:39.333Z,9.85
2018-11-11T23:30:18.050Z,9.80
2018-11-11T23:32:50.990Z,9.91
2018-11-11T23:35:27.013Z,9.80
2018-11-11T23:37:59.962Z,9.65
2018-11-11T23:40:34.517Z,9.47
2018-11-11T23:43:09.199Z,9.29
2018-11-11T23:45:44.948Z,9.21
2018-11-11T23:48:20.866Z,9.07
2018-11-11T23:50:54.085Z,8.83
2018-11-11T23:53:27.921Z,8.75
2018-11-11T23:56:02.184Z,8.92
2018-11-11T23:58:36.323Z,9.02
